Time;durP1;ratioP1;P1;durP2;ratioP2;P2;SDS_P1;SDS_P2;PMS_P1;PMS_P2;Temp;Humidity;BMP_temperature;BMP_pressure;BME280_temperature;BME280_humidity;BME280_pressure;Samples;Min_cycle;Max_cycle;Signal;HPM_P1;HPM_P2
2021/09/17 00:00:20;;;;;;;11.57;7.35;;;;;;;20.52;52.65;100528.94;4993507;28;20030;-77
2021/09/17 00:02:45;;;;;;;10.95;7.57;;;;;;;20.59;50.88;100519.31;4991868;28;20109;-74
2021/09/17 00:05:11;;;;;;;12.30;8.30;;;;;;;20.80;50.59;100528.91;4991797;28;20850;-76
2021/09/17 00:07:36;;;;;;;15.50;8.18;;;;;;;20.64;51.33;100520.16;4991012;28;20022;-74
2021/09/17 00:10:03;;;;;;;14.95;7.85;;;;;;;20.75;50.87;100528.00;4993878;28;20034;-75
2021/09/17 00:12:28;;;;;;;12.40;8.20;;;;;;;20.68;51.38;100522.75;4997388;28;20062;-74
2021/09/17 00:14:54;;;;;;;15.50;8.00;;;;;;;20.66;52.00;100523.66;4992986;28;20081;-73
2021/09/17 00:17:19;;;;;;;12.00;7.80;;;;;;;20.29;53.09;100529.03;5010009;28;20550;-72
2021/09/17 00:19:45;;;;;;;13.18;8.07;;;;;;;20.19;53.01;100513.28;5013391;28;20057;-72
2021/09/17 00:22:10;;;;;;;12.48;8.32;;;;;;;20.09;53.61;100516.81;5011643;28;20472;-72
2021/09/17 00:24:36;;;;;;;13.15;8.65;;;;;;;19.39;55.36;100472.28;5014756;28;20499;-72
2021/09/17 00:27:01;;;;;;;12.63;7.72;;;;;;;19.52;56.63;100509.81;5014856;28;20400;-75
2021/09/17 00:29:27;;;;;;;12.18;8.13;;;;;;;19.27;58.31;100515.91;5014797;28;20077;-72
2021/09/17 00:31:52;;;;;;;11.70;8.20;;;;;;;19.15;58.97;100514.13;5015026;28;20018;-73
2021/09/17 00:34:18;;;;;;;14.43;8.50;;;;;;;18.81;59.83;100499.16;5014532;28;20479;-71
2021/09/17 00:36:43;;;;;;;9.93;8.68;;;;;;;18.10;62.72;100498.81;5014780;28;20024;-72
2021/09/17 00:39:13;;;;;;;10.13;8.38;;;;;;;17.87;63.42;100468.16;5014535;28;20064;-71
2021/09/17 00:41:43;;;;;;;9.73;8.32;;;;;;;18.15;63.26;100486.66;5014604;28;20105;-70
2021/09/17 00:44:09;;;;;;;;;;;;;;;18.20;63.47;100495.38;5012214;28;20058;-75
2021/09/17 00:46:35;;;;;;;13.93;8.80;;;;;;;18.35;62.60;100491.13;5013321;28;20307;-73
2021/09/17 00:49:00;;;;;;;12.40;8.32;;;;;;;18.38;62.79;100498.97;5014554;28;20034;-68
2021/09/17 00:51:26;;;;;;;9.77;7.53;;;;;;;18.37;62.56;100489.41;5014332;28;20037;-70
2021/09/17 00:53:52;;;;;;;11.55;8.23;;;;;;;18.31;63.00;100487.63;5014161;28;20033;-73
2021/09/17 00:56:18;;;;;;;11.52;7.93;;;;;;;17.76;63.54;100441.09;5014635;28;20026;-71
2021/09/17 00:58:43;;;;;;;11.18;7.82;;;;;;;18.16;63.01;100483.19;5014327;28;20018;-69
2021/09/17 01:01:09;;;;;;;12.73;7.90;;;;;;;18.07;63.13;100480.53;5014617;28;20026;-70
2021/09/17 01:03:36;;;;;;;14.43;7.35;;;;;;;18.24;63.18;100486.72;5014157;28;20480;-69
2021/09/17 01:06:02;;;;;;;11.63;7.25;;;;;;;18.12;63.05;100468.34;5014454;28;20030;-73
2021/09/17 01:08:31;;;;;;;13.02;7.55;;;;;;;18.26;62.81;100471.91;4996271;28;20552;-73
2021/09/17 01:10:58;;;;;;;10.90;6.95;;;;;;;18.38;61.90;100460.66;4995622;28;20120;-73
2021/09/17 01:13:24;;;;;;;9.25;7.65;;;;;;;18.54;61.11;100466.81;5014162;28;20030;-72
2021/09/17 01:15:50;;;;;;;9.73;7.38;;;;;;;18.73;60.26;100464.28;5014224;28;20381;-71
2021/09/17 01:18:15;;;;;;;10.95;6.88;;;;;;;18.82;59.81;100474.75;5012211;28;20095;-72
2021/09/17 01:20:41;;;;;;;9.30;6.88;;;;;;;18.73;60.15;100473.00;5001118;28;20056;-73
2021/09/17 01:23:06;;;;;;;10.32;7.97;;;;;;;18.72;59.45;100460.78;5011835;28;20089;-76
2021/09/17 01:25:32;;;;;;;11.45;7.30;;;;;;;18.14;61.05;100422.19;5004498;28;20044;-75
2021/09/17 01:27:57;;;;;;;9.55;7.35;;;;;;;18.36;62.37;100470.22;5013824;28;20026;-75
2021/09/17 01:30:23;;;;;;;13.85;6.93;;;;;;;18.06;63.88;100489.22;5012908;28;20121;-74
2021/09/17 01:32:50;;;;;;;9.27;6.40;;;;;;;17.11;67.91;100482.31;5014190;28;20431;-74
2021/09/17 01:35:18;;;;;;;13.27;6.35;;;;;;;17.52;66.74;100481.81;5013981;28;20029;-74
2021/09/17 01:37:45;;;;;;;17.85;7.47;;;;;;;17.57;66.68;100472.28;5013935;28;20041;-73
2021/09/17 01:40:11;;;;;;;12.40;6.40;;;;;;;17.50;66.97;100480.06;5013889;28;20033;-74
2021/09/17 01:42:37;;;;;;;15.32;7.85;;;;;;;17.40;67.01;100468.66;5013967;28;20022;-74
2021/09/17 01:45:04;;;;;;;14.20;6.88;;;;;;;17.61;66.69;100478.41;5013896;28;20034;-74
2021/09/17 01:47:29;;;;;;;12.77;7.35;;;;;;;17.66;66.46;100487.16;5013679;28;20030;-75
2021/09/17 01:49:55;;;;;;;11.63;7.18;;;;;;;16.81;67.48;100403.72;5013772;28;20511;-73
2021/09/17 01:52:20;;;;;;;8.07;6.40;;;;;;;17.41;66.40;100475.63;5013874;28;20030;-74
2021/09/17 01:54:46;;;;;;;12.38;7.30;;;;;;;17.48;66.22;100461.75;5013466;28;20481;-75
2021/09/17 01:57:11;;;;;;;9.52;6.65;;;;;;;17.61;65.87;100475.81;5013591;28;20033;-75
2021/09/17 01:59:37;;;;;;;11.27;7.00;;;;;;;17.61;65.80;100458.41;5013552;28;20103;-74
2021/09/17 02:02:03;;;;;;;13.00;7.40;;;;;;;17.44;66.24;100439.13;5013559;28;20018;-73
2021/09/17 02:04:28;;;;;;;11.20;7.55;;;;;;;17.57;65.41;100458.34;5013011;28;20030;-74
2021/09/17 02:06:54;;;;;;;12.25;7.88;;;;;;;17.32;65.94;100452.06;5013358;28;20110;-74
2021/09/17 02:09:19;;;;;;;12.65;7.00;;;;;;;17.04;67.83;100476.13;5013411;28;20104;-74
2021/09/17 02:11:45;;;;;;;11.35;7.55;;;;;;;16.92;68.48;100463.84;5013629;28;20072;-74
2021/09/17 02:14:10;;;;;;;12.70;7.47;;;;;;;17.14;68.24;100477.13;5013176;28;20050;-74
2021/09/17 02:16:38;;;;;;;18.55;7.22;;;;;;;17.37;67.36;100453.84;5013016;28;20026;-74
2021/09/17 02:19:03;;;;;;;8.68;7.15;;;;;;;17.51;66.53;100417.44;5013133;28;20050;-74
2021/09/17 02:21:29;;;;;;;11.85;6.78;;;;;;;17.80;65.02;100440.25;5013022;28;20144;-73
2021/09/17 02:23:54;;;;;;;12.02;6.72;;;;;;;17.86;63.65;100426.38;5013099;28;20044;-73
2021/09/17 02:26:20;;;;;;;12.60;7.05;;;;;;;17.96;61.73;100430.81;5013277;28;20026;-75
2021/09/17 02:28:46;;;;;;;14.70;7.13;;;;;;;17.91;62.53;100443.81;5012888;28;20036;-74
2021/09/17 02:31:12;;;;;;;11.02;7.30;;;;;;;18.00;62.76;100455.22;5013008;28;20137;-73
2021/09/17 02:33:37;;;;;;;9.77;6.90;;;;;;;17.41;65.60;100459.97;5012842;28;20030;-73
2021/09/17 02:36:04;;;;;;;15.73;7.43;;;;;;;17.48;65.85;100461.75;5012670;28;20036;-73
2021/09/17 02:38:29;;;;;;;12.13;6.70;;;;;;;17.68;65.49;100434.94;5012980;28;20105;-74
2021/09/17 02:40:55;;;;;;;13.57;7.18;;;;;;;17.75;64.25;100434.13;5012794;28;20109;-76
2021/09/17 02:43:21;;;;;;;14.98;7.05;;;;;;;17.77;64.64;100445.47;5012111;28;20026;-74
2021/09/17 02:45:46;;;;;;;12.95;7.65;;;;;;;17.99;62.43;100456.09;5012781;28;20077;-74
2021/09/17 02:48:12;;;;;;;13.07;7.22;;;;;;;17.78;63.42;100437.63;5012676;28;20022;-73
2021/09/17 02:50:40;;;;;;;15.85;7.00;;;;;;;17.60;65.05;100456.63;5012277;28;20084;-73
2021/09/17 02:53:07;;;;;;;10.77;6.93;;;;;;;17.57;64.65;100437.47;5012605;28;20463;-74
2021/09/17 02:55:33;;;;;;;13.05;6.90;;;;;;;17.59;63.38;100410.50;5012700;28;20029;-74
2021/09/17 02:57:58;;;;;;;16.73;7.40;;;;;;;17.74;64.08;100440.22;5012639;28;20030;-74
2021/09/17 03:00:24;;;;;;;12.05;7.20;;;;;;;17.67;63.64;100436.69;5012456;28;20104;-74
2021/09/17 03:02:49;;;;;;;13.77;7.15;;;;;;;17.82;63.29;100441.16;5012307;28;20037;-79
2021/09/17 03:05:15;;;;;;;15.48;7.95;;;;;;;17.54;62.92;100393.94;5012381;28;20022;-76
2021/09/17 03:07:41;;;;;;;13.52;7.63;;;;;;;17.92;62.86;100442.94;5012457;28;20224;-74
2021/09/17 03:10:07;;;;;;;12.18;7.43;;;;;;;18.05;62.22;100443.91;5012306;28;20488;-73
2021/09/17 03:12:34;;;;;;;13.43;7.95;;;;;;;17.88;61.96;100407.25;5011876;28;20033;-74
2021/09/17 03:14:59;;;;;;;13.65;7.90;;;;;;;18.06;62.22;100440.44;5012384;28;20439;-73
2021/09/17 03:17:25;;;;;;;24.92;8.35;;;;;;;17.79;62.78;100418.50;5012191;28;20092;-75
2021/09/17 03:19:50;;;;;;;17.80;8.00;;;;;;;17.60;63.72;100425.31;5011990;28;20522;-73
2021/09/17 03:22:16;;;;;;;25.70;8.02;;;;;;;17.71;63.73;100445.44;4994664;28;20033;-74
2021/09/17 03:24:41;;;;;;;19.38;7.40;;;;;;;17.54;64.09;100443.53;5012138;28;20061;-74
2021/09/17 03:27:07;;;;;;;21.90;7.43;;;;;;;17.61;64.68;100462.75;5012025;28;20492;-72
2021/09/17 03:29:33;;;;;;;25.98;8.48;;;;;;;17.44;64.77;100429.53;5011917;28;20113;-74
2021/09/17 03:31:59;;;;;;;12.85;7.70;;;;;;;17.58;64.71;100441.81;5011601;28;20022;-76
2021/09/17 03:34:24;;;;;;;16.60;7.57;;;;;;;17.55;63.63;100392.22;5011899;28;20034;-74
2021/09/17 03:36:50;;;;;;;19.90;7.35;;;;;;;17.72;62.76;100419.31;5011925;28;20033;-73
2021/09/17 03:39:16;;;;;;;17.20;8.55;;;;;;;17.87;62.19;100422.88;5012029;28;20034;-74
2021/09/17 03:41:45;;;;;;;16.65;7.85;;;;;;;17.59;62.95;100399.22;5011890;28;20022;-74
2021/09/17 03:44:14;;;;;;;19.98;8.05;;;;;;;17.61;63.59;100419.22;5011604;28;20053;-73
2021/09/17 03:46:41;;;;;;;18.13;8.07;;;;;;;17.55;63.64;100418.31;5011691;28;20030;-74
2021/09/17 03:49:07;;;;;;;27.13;8.80;;;;;;;17.18;65.31;100436.28;5011742;28;20037;-74
2021/09/17 03:51:33;;;;;;;27.02;8.55;;;;;;;16.88;66.26;100435.09;5011961;28;20029;-74
2021/09/17 03:53:58;;;;;;;14.32;7.85;;;;;;;16.78;67.83;100447.13;5011603;28;20034;-74
2021/09/17 03:56:24;;;;;;;15.55;7.95;;;;;;;16.63;68.73;100456.53;5011836;28;20033;-74
2021/09/17 03:58:49;;;;;;;16.75;8.13;;;;;;;16.36;69.94;100448.38;5011759;28;20034;-74
2021/09/17 04:01:15;;;;;;;15.68;8.20;;;;;;;16.27;69.04;100410.06;5011516;28;20026;-74
2021/09/17 04:03:40;;;;;;;18.40;8.45;;;;;;;16.68;68.90;100433.13;5011437;28;20038;-74
2021/09/17 04:06:06;;;;;;;14.43;7.72;;;;;;;16.71;67.46;100406.22;4994008;28;20810;-74
2021/09/17 04:08:31;;;;;;;22.42;9.13;;;;;;;17.09;65.74;100429.25;5011833;28;20068;-74
2021/09/17 04:10:57;;;;;;;19.00;8.25;;;;;;;17.24;64.45;100428.50;5011207;28;20064;-78
2021/09/17 04:13:22;;;;;;;18.10;8.20;;;;;;;17.38;64.18;100444.28;5011594;28;20034;-74
2021/09/17 04:15:48;;;;;;;18.42;7.95;;;;;;;17.43;63.72;100445.19;5011405;28;20552;-73
2021/09/17 04:18:13;;;;;;;20.13;8.52;;;;;;;17.45;63.90;100452.16;5011499;28;20034;-75
2021/09/17 04:20:39;;;;;;;15.23;7.60;;;;;;;17.37;63.90;100442.53;5011167;28;20129;-74
2021/09/17 04:23:04;;;;;;;13.02;8.20;;;;;;;17.44;63.65;100439.13;5011340;28;20416;-73
2021/09/17 04:25:30;;;;;;;13.52;8.68;;;;;;;17.17;63.80;100393.69;5011497;28;20022;-78
2021/09/17 04:27:57;;;;;;;13.57;8.60;;;;;;;17.43;64.49;100433.03;5010782;28;20187;-75
2021/09/17 04:30:22;;;;;;;18.13;8.73;;;;;;;17.07;65.23;100390.13;5010768;28;20041;-74
2021/09/17 04:32:48;;;;;;;18.17;8.95;;;;;;;17.11;65.64;100440.56;5011148;28;20030;-75
2021/09/17 04:35:14;;;;;;;20.45;10.07;;;;;;;16.71;68.30;100450.53;5010998;28;20385;-75
2021/09/17 04:37:47;;;;;;;26.70;9.88;;;;;;;16.71;68.60;100460.97;5011409;28;20034;-75
2021/09/17 04:40:16;;;;;;;26.85;9.75;;;;;;;16.25;71.83;100469.97;5011168;28;20459;-74
2021/09/17 04:42:42;;;;;;;18.35;8.80;;;;;;;15.87;72.59;100469.41;5011073;28;20030;-75
2021/09/17 04:45:09;;;;;;;20.23;9.48;;;;;;;15.99;72.06;100448.75;5010801;28;20029;-75
2021/09/17 04:47:35;;;;;;;14.80;9.38;;;;;;;16.21;71.66;100455.13;5010794;28;20104;-75
2021/09/17 04:50:02;;;;;;;20.88;9.30;;;;;;;16.44;70.79;100449.34;5009775;28;20030;-75
2021/09/17 04:52:28;;;;;;;22.27;8.95;;;;;;;16.69;69.57;100432.28;5011099;28;20416;-75
2021/09/17 04:54:54;;;;;;;21.52;9.05;;;;;;;16.60;68.76;100354.00;5010994;28;20026;-75
2021/09/17 04:57:20;;;;;;;20.20;8.52;;;;;;;17.17;67.76;100408.44;5010894;28;20507;-75
2021/09/17 04:59:45;;;;;;;18.75;9.75;;;;;;;17.24;68.26;100416.31;5010730;28;20029;-75
2021/09/17 05:02:10;;;;;;;46.42;12.70;;;;;;;17.49;69.28;100410.44;5009650;28;20480;-73
2021/09/17 05:04:36;;;;;;;52.40;14.23;;;;;;;17.40;72.22;100401.69;5011260;28;20439;-73
2021/09/17 05:07:02;;;;;;;33.05;13.90;;;;;;;17.51;73.19;100398.25;5014904;28;20069;-74
2021/09/17 05:09:30;;;;;;;50.80;14.10;;;;;;;17.52;70.78;100385.25;4990022;28;20126;-73
2021/09/17 05:11:56;;;;;;;31.23;12.75;;;;;;;17.85;70.02;100417.66;5013650;28;20034;-72
2021/09/17 05:14:21;;;;;;;27.65;12.85;;;;;;;17.75;70.51;100419.31;5012428;28;20473;-74
2021/09/17 05:16:47;;;;;;;22.35;11.55;;;;;;;17.20;71.59;100372.81;5012167;28;20495;-74
2021/09/17 05:19:13;;;;;;;31.13;12.95;;;;;;;17.15;72.29;100398.00;5005811;28;20521;-75
2021/09/17 05:21:38;;;;;;;30.10;13.30;;;;;;;17.05;72.79;100404.88;5011053;28;20179;-74
2021/09/17 05:24:04;;;;;;;32.35;13.68;;;;;;;17.14;73.21;100435.38;5010289;28;20033;-73
2021/09/17 05:26:29;;;;;;;29.35;13.00;;;;;;;17.32;73.12;100439.91;5008383;28;20119;-74
2021/09/17 05:28:55;;;;;;;33.03;14.60;;;;;;;16.97;73.69;100429.97;5011794;28;20099;-73
2021/09/17 05:31:20;;;;;;;24.33;12.80;;;;;;;16.91;75.17;100448.13;5011801;28;20136;-74
2021/09/17 05:33:49;;;;;;;27.70;13.70;;;;;;;17.21;74.09;100436.28;5013637;28;20427;-72
2021/09/17 05:36:14;;;;;;;32.08;13.35;;;;;;;17.34;73.96;100447.72;5013802;28;20029;-78
2021/09/17 05:38:40;;;;;;;23.33;11.93;;;;;;;17.36;74.28;100435.56;5013768;28;20030;-74
2021/09/17 05:41:05;;;;;;;24.00;11.57;;;;;;;17.13;75.56;100460.59;5013704;28;20105;-73
2021/09/17 05:43:31;;;;;;;26.50;13.20;;;;;;;17.14;75.44;100466.69;5013535;28;20022;-72
2021/09/17 05:45:57;;;;;;;28.33;11.70;;;;;;;17.31;74.41;100456.41;5013633;28;20120;-73
2021/09/17 05:48:25;;;;;;;28.75;11.82;;;;;;;17.34;74.06;100442.53;5013927;28;20516;-73
2021/09/17 05:50:52;;;;;;;20.98;11.77;;;;;;;17.60;73.33;100467.09;5013780;28;20083;-77
2021/09/17 05:53:17;;;;;;;21.48;12.27;;;;;;;17.49;72.56;100416.53;5011560;28;20030;-74
2021/09/17 05:55:43;;;;;;;22.88;11.82;;;;;;;17.49;72.14;100398.25;5010274;28;20021;-72
2021/09/17 05:58:10;;;;;;;20.27;12.13;;;;;;;17.85;71.99;100453.34;5013652;28;20040;-75
2021/09/17 06:00:36;;;;;;;20.98;11.45;;;;;;;18.09;70.90;100447.44;5013378;28;20022;-73
2021/09/17 06:03:01;;;;;;;19.73;13.82;;;;;;;18.33;70.22;100437.97;5012990;28;20175;-73
2021/09/17 06:05:27;;;;;;;20.13;11.35;;;;;;;18.45;69.76;100438.00;4994548;28;20033;-74
2021/09/17 06:07:52;;;;;;;18.23;10.95;;;;;;;18.79;68.34;100443.38;5013176;28;20018;-72
2021/09/17 06:10:18;;;;;;;16.45;12.00;;;;;;;18.71;69.00;100408.47;5013111;28;20049;-75
2021/09/17 06:12:44;;;;;;;16.40;10.25;;;;;;;18.97;68.42;100426.88;5012913;28;20033;-74
2021/09/17 06:15:10;;;;;;;18.48;9.82;;;;;;;19.03;67.97;100433.88;5012941;28;20041;-74
2021/09/17 06:17:35;;;;;;;16.63;9.40;;;;;;;19.02;68.06;100427.75;5009642;28;20026;-74
2021/09/17 06:20:01;;;;;;;13.25;8.68;;;;;;;19.27;67.46;100425.16;4993878;28;20050;-77
2021/09/17 06:22:26;;;;;;;15.05;9.50;;;;;;;19.39;66.93;100424.31;5012689;28;20026;-78
2021/09/17 06:24:52;;;;;;;15.35;9.60;;;;;;;19.53;66.93;100430.38;5003134;28;20496;-74
2021/09/17 06:27:17;;;;;;;16.83;10.75;;;;;;;19.51;66.35;100405.94;5019542;28;20029;-75
2021/09/17 06:29:43;;;;;;;16.90;11.05;;;;;;;19.81;65.86;100426.88;5012649;28;20022;-79
2021/09/17 06:32:08;;;;;;;14.90;10.15;;;;;;;19.79;66.51;100423.38;5012266;28;20091;-76
2021/09/17 06:34:34;;;;;;;14.05;11.35;;;;;;;19.73;66.52;100421.66;5012705;28;20030;-77
2021/09/17 06:36:59;;;;;;;16.80;11.60;;;;;;;19.62;66.21;100394.59;5012475;28;20022;-74
2021/09/17 06:39:25;;;;;;;20.17;11.15;;;;;;;20.08;65.46;100430.34;5012164;28;20021;-74
2021/09/17 06:41:51;;;;;;;15.80;10.77;;;;;;;20.37;64.17;100427.59;5012142;28;20030;-73
2021/09/17 06:44:17;;;;;;;15.15;10.20;;;;;;;20.42;64.29;100423.22;5012420;28;20029;-74
2021/09/17 06:46:42;;;;;;;13.07;9.95;;;;;;;20.25;65.13;100425.91;5011927;28;20026;-75
2021/09/17 06:49:07;;;;;;;17.60;10.25;;;;;;;20.41;65.58;100445.09;5012431;28;20014;-73
2021/09/17 06:51:33;;;;;;;14.70;10.35;;;;;;;20.50;64.45;100437.16;5010292;28;20041;-76
2021/09/17 06:53:59;;;;;;;16.63;9.75;;;;;;;20.82;63.28;100436.16;5012585;28;20109;-76
2021/09/17 06:56:24;;;;;;;12.90;9.68;;;;;;;21.11;62.02;100431.59;5011826;28;20033;-79
2021/09/17 06:58:50;;;;;;;12.93;8.95;;;;;;;21.37;61.35;100420.91;5012197;28;20030;-77
2021/09/17 07:01:15;;;;;;;14.60;9.50;;;;;;;21.63;59.85;100422.44;5011733;28;20030;-77
2021/09/17 07:03:41;;;;;;;15.23;9.77;;;;;;;21.43;60.01;100386.72;5012189;28;20028;-78
2021/09/17 07:06:06;;;;;;;12.70;9.27;;;;;;;21.76;59.14;100416.19;5012047;28;20022;-78
2021/09/17 07:08:32;;;;;;;14.57;9.65;;;;;;;21.87;58.87;100417.81;5012603;28;20038;-78
2021/09/17 07:10:57;;;;;;;13.20;10.10;;;;;;;21.88;60.72;100430.97;5012162;28;20096;-79
2021/09/17 07:13:23;;;;;;;12.50;9.23;;;;;;;21.91;58.92;100430.06;5012227;28;20022;-76
2021/09/17 07:15:48;;;;;;;17.65;9.60;;;;;;;21.75;60.25;100438.09;5012181;28;20026;-79
2021/09/17 07:18:34;;;;;;;14.15;9.35;;;;;;;21.56;60.10;100437.41;4989420;28;20496;-79
2021/09/17 07:21:01;;;;;;;12.82;9.30;;;;;;;21.49;60.12;100435.69;4989738;28;20046;-79
2021/09/17 07:23:27;;;;;;;12.48;8.85;;;;;;;21.21;59.81;100382.50;4989567;28;20038;-80
2021/09/17 07:25:52;;;;;;;14.80;9.85;;;;;;;21.61;59.36;100396.19;4989809;28;20026;-78
2021/09/17 07:28:18;;;;;;;15.75;9.98;;;;;;;21.80;58.09;100398.63;4989420;28;20038;-78
2021/09/17 07:30:43;;;;;;;13.70;9.63;;;;;;;21.96;57.83;100417.75;4989799;28;20429;-78
2021/09/17 07:33:09;;;;;;;13.13;10.23;;;;;;;21.78;58.36;100408.28;4989709;28;20125;-75
2021/09/17 07:35:34;;;;;;;12.65;10.13;;;;;;;21.71;58.56;100420.63;4989919;28;20034;-77
2021/09/17 07:38:00;;;;;;;12.85;9.88;;;;;;;21.72;58.84;100421.47;4989911;28;20038;-76
2021/09/17 07:40:27;;;;;;;13.90;9.13;;;;;;;21.84;57.94;100418.72;4989806;28;20405;-76
2021/09/17 07:42:55;;;;;;;13.63;9.80;;;;;;;21.84;56.91;100400.34;4989643;28;20061;-77
2021/09/17 07:45:22;;;;;;;15.77;9.57;;;;;;;21.89;57.09;100413.44;4989727;28;20042;-81
2021/09/17 07:47:48;;;;;;;33.33;10.05;;;;;;;22.00;57.15;100411.56;4989934;28;20022;-81
2021/09/17 07:50:14;;;;;;;40.20;10.45;;;;;;;21.99;57.29;100415.06;5006627;28;20042;-86
2021/09/17 07:52:40;;;;;;;12.65;9.63;;;;;;;21.94;57.32;100385.34;5011498;28;20524;-74
2021/09/17 07:55:07;;;;;;;14.88;9.75;;;;;;;22.27;56.62;100414.75;5011578;28;20114;-74
2021/09/17 07:57:33;;;;;;;12.93;9.50;;;;;;;22.27;56.05;100396.34;5011639;28;20396;-73
2021/09/17 07:59:58;;;;;;;11.38;9.25;;;;;;;22.45;56.38;100422.47;5011677;28;20033;-75
2021/09/17 08:02:24;;;;;;;13.05;9.40;;;;;;;22.28;55.45;100350.72;5011426;28;20030;-74
2021/09/17 08:04:50;;;;;;;12.77;8.75;;;;;;;22.66;55.79;100409.88;5011322;28;20030;-76
2021/09/17 08:07:15;;;;;;;14.38;8.95;;;;;;;22.61;55.04;100402.06;5011555;28;20026;-73
2021/09/17 08:09:40;;;;;;;12.55;8.85;;;;;;;22.58;54.31;100402.09;5011216;28;20061;-73
2021/09/17 08:12:06;;;;;;;10.20;8.90;;;;;;;22.81;53.83;100393.00;5011768;28;20077;-77
2021/09/17 08:14:32;;;;;;;12.32;8.80;;;;;;;22.71;54.19;100392.25;5011586;28;20037;-75
2021/09/17 08:16:58;;;;;;;14.00;8.65;;;;;;;22.99;53.09;100391.88;5011499;28;20034;-74
2021/09/17 08:19:24;;;;;;;11.25;8.57;;;;;;;23.22;53.39;100393.28;5011038;28;20084;-75
2021/09/17 08:21:50;;;;;;;13.13;8.60;;;;;;;23.35;52.41;100368.47;5011210;28;20036;-74
2021/09/17 08:24:18;;;;;;;12.88;8.50;;;;;;;23.50;51.28;100372.59;5011137;28;20030;-78
2021/09/17 08:26:46;;;;;;;17.27;8.98;;;;;;;23.50;51.80;100377.88;5011149;28;20022;-75
2021/09/17 08:29:11;;;;;;;11.43;8.25;;;;;;;23.62;51.56;100352.19;5011391;28;20469;-74
2021/09/17 08:31:38;;;;;;;13.00;8.50;;;;;;;23.99;50.94;100369.94;5011093;28;20057;-74
2021/09/17 08:34:06;;;;;;;14.13;8.02;;;;;;;24.12;50.58;100367.94;5011019;28;20026;-76
2021/09/17 08:36:32;;;;;;;13.07;8.35;;;;;;;24.35;50.02;100363.03;5010988;28;20022;-73
2021/09/17 08:38:58;;;;;;;11.63;8.93;;;;;;;24.49;50.17;100375.91;5011468;28;20038;-73
2021/09/17 08:41:25;;;;;;;14.85;8.73;;;;;;;24.61;49.05;100356.31;5014443;28;20446;-74
2021/09/17 08:43:51;;;;;;;12.82;8.07;;;;;;;24.82;47.98;100356.72;5014687;28;20034;-74
2021/09/17 08:46:18;;;;;;;14.73;8.45;;;;;;;24.77;48.53;100358.59;5014759;28;20515;-75
2021/09/17 08:48:49;;;;;;;10.55;7.80;;;;;;;24.79;48.53;100354.16;5014887;28;20504;-74
2021/09/17 08:51:16;;;;;;;12.32;8.70;;;;;;;24.81;48.88;100344.41;5014656;28;20083;-74
2021/09/17 08:53:42;;;;;;;10.88;8.20;;;;;;;24.87;48.33;100336.34;5014435;28;20502;-76
2021/09/17 08:56:11;;;;;;;12.75;8.30;;;;;;;25.03;48.54;100324.53;5013830;28;20030;-77
2021/09/17 08:58:37;;;;;;;11.27;8.15;;;;;;;25.31;48.13;100331.72;5014554;28;20058;-74
2021/09/17 09:01:03;;;;;;;13.48;8.15;;;;;;;25.36;46.99;100307.81;4980123;28;20073;-76
2021/09/17 09:03:34;;;;;;;17.73;8.23;;;;;;;25.51;48.61;100320.63;5014322;28;20439;-75
2021/09/17 09:06:14;;;;;;;14.15;8.55;;;;;;;25.37;50.55;100303.44;5012319;28;20033;-75
2021/09/17 09:08:41;;;;;;;14.32;8.10;;;;;;;25.54;46.95;100309.13;5011767;28;20377;-73
2021/09/17 09:11:15;;;;;;;10.00;8.55;;;;;;;25.71;48.05;100315.69;5013893;28;20033;-74
2021/09/17 09:14:09;;;;;;;9.10;7.70;;;;;;;25.76;45.85;100308.53;5012992;28;20034;-73
2021/09/17 09:16:44;;;;;;;10.13;7.90;;;;;;;25.58;45.89;100304.59;4933499;29;20039;-77
2021/09/17 09:19:27;;;;;;;13.25;8.23;;;;;;;25.56;45.44;100293.19;4933962;29;20051;-76
2021/09/17 09:22:06;;;;;;;12.52;8.10;;;;;;;25.32;47.07;100234.81;4933539;29;20040;-76
2021/09/17 09:24:39;;;;;;;9.52;8.00;;;;;;;25.61;46.68;100296.56;4918510;29;20109;-73
2021/09/17 09:27:10;;;;;;;12.25;8.13;;;;;;;25.55;45.73;100281.78;4934089;29;20039;-76
2021/09/17 09:29:37;;;;;;;11.95;8.38;;;;;;;25.22;48.01;100260.59;4933717;29;20039;-75
2021/09/17 09:32:04;;;;;;;11.52;8.35;;;;;;;25.45;47.48;100288.25;4932911;29;20442;-77
2021/09/17 09:34:58;;;;;;;10.57;8.10;;;;;;;25.46;49.64;100284.66;4934463;29;20043;-78
2021/09/17 09:37:28;;;;;;;13.25;7.95;;;;;;;25.47;50.17;100271.44;4932019;29;20106;-77
2021/09/17 09:39:55;;;;;;;;;;;;;;;25.48;48.05;100262.59;4933385;29;20040;-77
2021/09/17 09:42:29;;;;;;;10.27;7.68;;;;;;;25.43;46.19;100243.31;4933067;29;19922;-78
2021/09/17 09:45:09;;;;;;;10.98;8.30;;;;;;;25.22;46.55;100250.03;4931837;29;20035;-74
2021/09/17 09:47:37;;;;;;;10.70;7.55;;;;;;;25.28;46.67;100239.31;4933284;29;20039;-71
2021/09/17 09:50:15;;;;;;;13.30;8.85;;;;;;;25.55;47.20;100243.91;4932771;29;20032;-75
2021/09/17 09:52:42;;;;;;;14.20;8.23;;;;;;;25.55;47.45;100217.47;4948343;28;20429;-75
2021/09/17 09:55:09;;;;;;;10.05;8.25;;;;;;;25.88;46.10;100220.88;4996756;28;20368;-74
2021/09/17 09:57:36;;;;;;;21.55;8.50;;;;;;;26.10;45.52;100225.53;4993009;28;20483;-73
2021/09/17 10:00:08;;;;;;;13.35;8.52;;;;;;;26.44;45.25;100216.50;4987048;28;20136;-74
2021/09/17 10:02:35;;;;;;;12.55;10.07;;;;;;;26.58;44.36;100200.16;4979486;28;20556;-77
2021/09/17 10:05:00;;;;;;;12.15;8.13;;;;;;;26.81;43.22;100215.28;4994365;28;20045;-75
2021/09/17 10:07:28;;;;;;;11.98;7.55;;;;;;;26.76;42.82;100201.34;5000867;28;20105;-76
2021/09/17 10:09:55;;;;;;;14.15;7.97;;;;;;;26.99;42.73;100203.16;5009742;28;20080;-77
2021/09/17 10:12:20;;;;;;;12.68;7.28;;;;;;;26.83;42.82;100179.03;5004477;28;20070;-72
2021/09/17 10:14:49;;;;;;;19.25;7.63;;;;;;;27.33;41.97;100195.78;5003110;28;20026;-74
2021/09/17 10:17:22;;;;;;;12.60;7.73;;;;;;;27.49;40.78;100196.09;4999571;28;20485;-73
2021/09/17 10:19:50;;;;;;;12.48;7.65;;;;;;;27.68;40.25;100191.84;4974684;28;20308;-77
2021/09/17 10:22:43;;;;;;;17.85;8.10;;;;;;;27.91;39.79;100198.91;4995314;28;20026;-72
2021/09/17 10:25:13;;;;;;;10.98;8.10;;;;;;;27.96;39.31;100192.53;4992936;28;20030;-82
2021/09/17 10:27:43;;;;;;;12.65;7.68;;;;;;;28.11;42.07;100213.16;4991027;28;20509;-74
2021/09/17 10:30:11;;;;;;;11.90;8.05;;;;;;;28.20;40.74;100204.84;4992837;28;20034;-73
2021/09/17 10:32:51;;;;;;;12.23;8.67;;;;;;;28.34;41.07;100206.09;4992810;28;20080;-72
2021/09/17 10:35:22;;;;;;;9.82;7.25;;;;;;;28.51;37.71;100197.41;4981682;28;20021;-73
2021/09/17 10:38:29;;;;;;;11.15;7.68;;;;;;;28.63;37.78;100186.25;4994132;28;20489;-83
2021/09/17 10:41:03;;;;;;;11.27;7.43;;;;;;;28.78;36.46;100178.59;4933909;28;20400;-77
2021/09/17 10:43:46;;;;;;;12.13;9.00;;;;;;;28.83;36.73;100179.25;4932435;28;20047;-78
2021/09/17 10:46:21;;;;;;;9.52;7.43;;;;;;;28.97;35.50;100182.16;4940160;28;20044;-79
2021/09/17 10:48:54;;;;;;;11.27;7.20;;;;;;;29.06;35.30;100178.25;4945726;29;20561;-78
2021/09/17 10:51:37;;;;;;;10.00;7.97;;;;;;;29.29;37.36;100174.56;4951647;29;20113;-78
2021/09/17 10:54:13;;;;;;;9.95;6.57;;;;;;;29.31;34.08;100169.16;4939226;28;20032;-78
2021/09/17 10:56:48;;;;;;;13.77;7.18;;;;;;;29.24;34.71;100170.38;4951306;29;20035;-82
2021/09/17 10:59:14;;;;;;;11.43;7.30;;;;;;;28.98;36.15;100122.75;4951600;29;20047;-79
2021/09/17 11:01:51;;;;;;;11.95;7.10;;;;;;;29.13;36.05;100158.41;4933241;29;20102;-79
2021/09/17 11:04:22;;;;;;;11.52;6.70;;;;;;;29.33;35.14;100157.50;4940676;28;20538;-74
2021/09/17 11:06:49;;;;;;;10.25;6.80;;;;;;;29.56;34.99;100149.41;4932346;28;20031;-80
2021/09/17 11:09:34;;;;;;;9.55;7.28;;;;;;;29.59;34.10;100141.28;4932374;28;20135;-74
2021/09/17 11:12:23;;;;;;;10.38;7.03;;;;;;;29.66;35.80;100148.03;4933430;28;20052;-76
2021/09/17 11:14:58;;;;;;;9.18;6.68;;;;;;;29.94;34.61;100138.75;4938570;28;20577;-76
2021/09/17 11:17:41;;;;;;;13.65;6.72;;;;;;;29.94;33.25;100130.75;4947988;28;20561;-78